Time,TemperatureF,DewpointF,PressureIn,WindDirection,WindDirectionDegrees,WindSpeedMPH,WindSpeedGustMPH,Humidity,HourlyPrecipIn,Conditions,Clouds,dailyrainin,SoftwareType,DateUTC
2013-01-20 00:42:00,9.0,6.0,-100.00,North,-999,0.0,-999.0,87,0.00,,,0.00,,2013-01-20 07:42:00,
2013-01-20 00:52:00,9.0,6.0,-100.00,North,-999,0.0,-999.0,87,0.00,,,0.00,,2013-01-20 07:52:00,
2013-01-20 01:02:00,9.0,6.0,-100.00,North,-999,0.0,-999.0,87,0.00,,,0.00,,2013-01-20 08:02:00,
2013-01-20 01:12:00,9.0,6.0,-100.00,North,-999,0.0,-999.0,87,0.00,,,0.00,,2013-01-20 08:12:00,
2013-01-20 01:42:00,7.0,4.0,-100.00,North,-999,0.0,-999.0,86,0.00,,,0.00,,2013-01-20 08:42:00,
2013-01-20 01:52:00,7.0,4.0,-100.00,North,-999,0.0,-999.0,86,0.00,,,0.00,,2013-01-20 08:52:00,
2013-01-20 02:02:00,7.0,4.0,-100.00,North,-999,0.0,-999.0,86,0.00,,,0.00,,2013-01-20 09:02:00,
2013-01-20 02:12:00,7.0,4.0,-100.00,North,-999,0.0,-999.0,86,0.00,,,0.00,,2013-01-20 09:12:00,
2013-01-20 02:42:00,6.0,3.0,-100.00,North,-999,0.0,-999.0,87,0.00,,,0.00,,2013-01-20 09:42:00,
2013-01-20 02:52:00,6.0,3.0,-100.00,North,-999,0.0,-999.0,87,0.00,,,0.00,,2013-01-20 09:52:00,
2013-01-20 03:02:00,6.0,3.0,-100.00,North,-999,0.0,-999.0,87,0.00,,,0.00,,2013-01-20 10:02:00,
2013-01-20 03:11:00,6.0,3.0,-100.00,North,-999,0.0,-999.0,87,0.00,,,0.00,,2013-01-20 10:11:00,
2013-01-20 03:42:00,5.0,2.0,-100.00,North,-999,0.0,-999.0,86,0.00,,,0.00,,2013-01-20 10:42:00,
2013-01-20 03:52:00,5.0,2.0,-100.00,North,-999,0.0,-999.0,86,0.00,,,0.00,,2013-01-20 10:52:00,
2013-01-20 04:02:00,5.0,2.0,-100.00,North,-999,0.0,-999.0,86,0.00,,,0.00,,2013-01-20 11:02:00,
2013-01-20 04:12:00,5.0,2.0,-100.00,North,-999,0.0,-999.0,86,0.00,,,0.00,,2013-01-20 11:12:00,
2013-01-20 04:42:00,5.0,2.0,-100.00,North,-999,0.0,-999.0,86,0.00,,,0.00,,2013-01-20 11:42:00,
2013-01-20 04:53:00,5.0,2.0,-100.00,North,-999,0.0,-999.0,86,0.00,,,0.00,,2013-01-20 11:53:00,
2013-01-20 05:02:00,5.0,2.0,-100.00,North,-999,0.0,-999.0,86,0.00,,,0.00,,2013-01-20 12:02:00,
2013-01-20 05:12:00,5.0,2.0,-100.00,North,-999,0.0,-999.0,86,0.00,,,0.00,,2013-01-20 12:12:00,
2013-01-20 05:43:00,3.0,0.0,-100.00,North,-999,0.0,-999.0,86,0.00,,,0.00,,2013-01-20 12:43:00,
2013-01-20 05:53:00,3.0,0.0,-100.00,North,-999,0.0,-999.0,86,0.00,,,0.00,,2013-01-20 12:53:00,
2013-01-20 06:42:00,3.0,0.0,-100.00,North,-999,0.0,-999.0,86,0.00,,,0.00,,2013-01-20 13:42:00,
2013-01-20 06:53:00,3.0,0.0,-100.00,North,-999,0.0,-999.0,86,0.00,,,0.00,,2013-01-20 13:53:00,
2013-01-20 07:12:00,3.0,0.0,-100.00,North,-999,0.0,-999.0,86,0.00,,,0.00,,2013-01-20 14:12:00,
2013-01-20 07:42:00,2.0,-1.0,-100.00,North,-999,0.0,-999.0,86,0.00,,,0.00,,2013-01-20 14:42:00,
2013-01-20 07:53:00,2.0,-1.0,-100.00,North,-999,0.0,-999.0,86,0.00,,,0.00,,2013-01-20 14:53:00,
2013-01-20 08:12:00,2.0,-1.0,-100.00,North,-999,0.0,-999.0,86,0.00,,,0.00,,2013-01-20 15:12:00,
2013-01-20 08:42:00,2.0,-2.0,-100.00,North,-999,0.0,-999.0,84,0.00,,,0.00,,2013-01-20 15:42:00,
2013-01-20 08:53:00,2.0,-2.0,-100.00,North,-999,0.0,-999.0,84,0.00,,,0.00,,2013-01-20 15:53:00,
2013-01-20 09:02:00,2.0,-2.0,-100.00,North,-999,0.0,-999.0,84,0.00,,,0.00,,2013-01-20 16:02:00,
2013-01-20 09:12:00,2.0,-2.0,-100.00,North,-999,0.0,-999.0,84,0.00,,,0.00,,2013-01-20 16:12:00,
2013-01-20 09:42:00,2.0,-1.0,-100.00,North,-999,0.0,-999.0,87,0.00,,,0.00,,2013-01-20 16:42:00,
2013-01-20 09:53:00,2.0,-1.0,-100.00,North,-999,0.0,-999.0,87,0.00,,,0.00,,2013-01-20 16:53:00,
2013-01-20 10:42:00,9.0,5.0,-100.00,North,-999,0.0,-999.0,83,0.00,,,0.00,,2013-01-20 17:42:00,
2013-01-20 10:53:00,9.0,5.0,-100.00,North,-999,0.0,-999.0,83,0.00,,,0.00,,2013-01-20 17:53:00,
2013-01-20 11:02:00,9.0,5.0,-100.00,North,-999,0.0,-999.0,83,0.00,,,0.00,,2013-01-20 18:02:00,
2013-01-20 11:42:00,17.0,10.0,-100.00,North,-999,0.0,-999.0,75,0.00,,,0.00,,2013-01-20 18:42:00,
2013-01-20 11:53:00,17.0,10.0,-100.00,North,-999,0.0,-999.0,75,0.00,,,0.00,,2013-01-20 18:53:00,
2013-01-20 12:02:00,17.0,10.0,-100.00,North,-999,0.0,-999.0,75,0.00,,,0.00,,2013-01-20 19:02:00,
2013-01-20 12:12:00,17.0,10.0,-100.00,North,-999,0.0,-999.0,75,0.00,,,0.00,,2013-01-20 19:12:00,
2013-01-20 12:42:00,19.0,11.0,-100.00,North,-999,0.0,-999.0,70,0.00,,,0.00,,2013-01-20 19:42:00,
2013-01-20 12:53:00,19.0,11.0,-100.00,North,-999,0.0,-999.0,70,0.00,,,0.00,,2013-01-20 19:53:00,
2013-01-20 13:02:00,19.0,11.0,-100.00,North,-999,0.0,-999.0,70,0.00,,,0.00,,2013-01-20 20:02:00,
2013-01-20 13:12:00,19.0,11.0,-100.00,North,-999,0.0,-999.0,70,0.00,,,0.00,,2013-01-20 20:12:00,
2013-01-20 13:53:00,21.0,10.0,-100.00,North,-999,0.0,-999.0,62,0.00,,,0.00,,2013-01-20 20:53:00,
2013-01-20 14:03:00,21.0,10.0,-100.00,North,-999,0.0,-999.0,62,0.00,,,0.00,,2013-01-20 21:03:00,
2013-01-20 14:12:00,21.0,10.0,-100.00,North,-999,0.0,-999.0,62,0.00,,,0.00,,2013-01-20 21:12:00,
2013-01-20 14:43:00,28.0,12.0,-100.00,North,-999,0.0,-999.0,51,0.00,,,0.00,,2013-01-20 21:43:00,
2013-01-20 14:53:00,28.0,12.0,-100.00,North,-999,0.0,-999.0,51,0.00,,,0.00,,2013-01-20 21:53:00,
2013-01-20 15:03:00,28.0,12.0,-100.00,North,-999,0.0,-999.0,51,0.00,,,0.00,,2013-01-20 22:03:00,
2013-01-20 15:12:00,28.0,12.0,-100.00,North,-999,0.0,-999.0,51,0.00,,,0.00,,2013-01-20 22:12:00,
2013-01-20 15:53:00,29.0,13.0,-100.00,North,-999,0.0,-999.0,50,0.00,,,0.00,,2013-01-20 22:53:00,
2013-01-20 16:03:00,29.0,13.0,-100.00,North,-999,0.0,-999.0,50,0.00,,,0.00,,2013-01-20 23:03:00,
2013-01-20 16:12:00,29.0,13.0,-100.00,North,-999,0.0,-999.0,50,0.00,,,0.00,,2013-01-20 23:12:00,
2013-01-20 16:42:00,31.0,13.0,-100.00,North,-999,0.0,-999.0,47,0.00,,,0.00,,2013-01-20 23:42:00,
2013-01-20 16:53:00,31.0,13.0,-100.00,North,-999,0.0,-999.0,47,0.00,,,0.00,,2013-01-20 23:53:00,
2013-01-20 17:02:00,31.0,13.0,-100.00,North,-999,0.0,-999.0,47,0.00,,,0.00,,2013-01-21 00:02:00,
2013-01-20 17:12:00,31.0,13.0,-100.00,North,-999,0.0,-999.0,47,0.00,,,0.00,,2013-01-21 00:12:00,
2013-01-20 17:42:00,19.0,10.0,-100.00,North,-999,0.0,-999.0,66,0.00,,,0.00,,2013-01-21 00:42:00,
2013-01-20 17:53:00,19.0,10.0,-100.00,North,-999,0.0,-999.0,66,0.00,,,0.00,,2013-01-21 00:53:00,
2013-01-20 18:12:00,19.0,10.0,-100.00,North,-999,0.0,-999.0,66,0.00,,,0.00,,2013-01-21 01:12:00,
2013-01-20 18:43:00,16.0,9.0,-100.00,North,-999,0.0,-999.0,73,0.00,,,0.00,,2013-01-21 01:43:00,
2013-01-20 18:53:00,16.0,9.0,-100.00,North,-999,0.0,-999.0,73,0.00,,,0.00,,2013-01-21 01:53:00,
2013-01-20 19:03:00,16.0,9.0,-100.00,North,-999,0.0,-999.0,73,0.00,,,0.00,,2013-01-21 02:03:00,
2013-01-20 19:12:00,16.0,9.0,-100.00,North,-999,0.0,-999.0,73,0.00,,,0.00,,2013-01-21 02:12:00,
2013-01-20 19:42:00,13.0,8.0,-100.00,North,-999,0.0,-999.0,80,0.00,,,0.00,,2013-01-21 02:42:00,
2013-01-20 19:53:00,13.0,8.0,-100.00,North,-999,0.0,-999.0,80,0.00,,,0.00,,2013-01-21 02:53:00,
2013-01-20 20:02:00,13.0,8.0,-100.00,North,-999,0.0,-999.0,80,0.00,,,0.00,,2013-01-21 03:02:00,
2013-01-20 20:12:00,13.0,8.0,-100.00,North,-999,0.0,-999.0,80,0.00,,,0.00,,2013-01-21 03:12:00,
2013-01-20 20:43:00,12.0,6.0,-100.00,North,-999,0.0,-999.0,78,0.00,,,0.00,,2013-01-21 03:43:00,
2013-01-20 20:53:00,12.0,6.0,-100.00,North,-999,0.0,-999.0,78,0.00,,,0.00,,2013-01-21 03:53:00,
2013-01-20 21:02:00,12.0,6.0,-100.00,North,-999,0.0,-999.0,78,0.00,,,0.00,,2013-01-21 04:02:00,
2013-01-20 21:12:00,12.0,6.0,-100.00,North,-999,0.0,-999.0,78,0.00,,,0.00,,2013-01-21 04:12:00,
2013-01-20 21:42:00,11.0,7.0,-100.00,North,-999,0.0,-999.0,83,0.00,,,0.00,,2013-01-21 04:42:00,
2013-01-20 21:53:00,11.0,7.0,-100.00,North,-999,0.0,-999.0,83,0.00,,,0.00,,2013-01-21 04:53:00,
2013-01-20 22:03:00,11.0,7.0,-100.00,North,-999,0.0,-999.0,83,0.00,,,0.00,,2013-01-21 05:03:00,
2013-01-20 22:12:00,11.0,7.0,-100.00,North,-999,0.0,-999.0,83,0.00,,,0.00,,2013-01-21 05:12:00,
2013-01-20 22:42:00,9.0,4.0,-100.00,North,-999,0.0,-999.0,81,0.00,,,0.00,,2013-01-21 05:42:00,
2013-01-20 22:53:00,9.0,4.0,-100.00,North,-999,0.0,-999.0,81,0.00,,,0.00,,2013-01-21 05:53:00,
2013-01-20 23:02:00,9.0,4.0,-100.00,North,-999,0.0,-999.0,81,0.00,,,0.00,,2013-01-21 06:02:00,
2013-01-20 23:12:00,9.0,4.0,-100.00,North,-999,0.0,-999.0,81,0.00,,,0.00,,2013-01-21 06:12:00,
2013-01-20 23:43:00,10.0,6.0,-100.00,North,-999,0.0,-999.0,84,0.00,,,0.00,,2013-01-21 06:43:00,
2013-01-20 23:53:00,10.0,6.0,-100.00,North,-999,0.0,-999.0,84,0.00,,,0.00,,2013-01-21 06:53:00,